Time;durP1;ratioP1;P1;durP2;ratioP2;P2;SDS_P1;SDS_P2;PMS_P1;PMS_P2;Temp;Humidity;BMP_temperature;BMP_pressure;BME280_temperature;BME280_humidity;BME280_pressure;Samples;Min_cycle;Max_cycle;Signal;HPM_P1;HPM_P2
2021/12/31 00:01:42;;;;;;;8.90;3.50;;;;;;;13.04;90.32;101735.13;5067534;28;20446;-62
2021/12/31 00:04:08;;;;;;;11.75;3.30;;;;;;;13.07;90.08;101731.28;5063771;28;20049;-62
2021/12/31 00:06:34;;;;;;;6.70;3.15;;;;;;;13.07;89.89;101741.97;5058709;28;20055;-62
2021/12/31 00:08:59;;;;;;;7.05;3.03;;;;;;;13.07;89.57;101733.97;5066426;28;20031;-61
2021/12/31 00:11:24;;;;;;;11.48;3.30;;;;;;;13.08;89.64;101733.78;5065734;28;20043;-62
2021/12/31 00:13:49;;;;;;;5.90;3.00;;;;;;;13.11;89.44;101722.78;5058694;28;20032;-62
2021/12/31 00:16:15;;;;;;;6.95;2.85;;;;;;;13.10;89.43;101739.78;5061610;28;20063;-61
2021/12/31 00:18:40;;;;;;;8.30;2.70;;;;;;;13.12;89.31;101743.13;5059664;28;20047;-61
2021/12/31 00:21:06;;;;;;;8.98;3.20;;;;;;;13.17;88.78;101739.97;5061492;28;20067;-61
2021/12/31 00:23:31;;;;;;;6.93;2.75;;;;;;;13.19;88.69;101743.34;5053474;28;20031;-61
2021/12/31 00:25:57;;;;;;;8.63;2.83;;;;;;;13.20;88.13;101739.66;5061545;28;20491;-62
2021/12/31 00:28:22;;;;;;;8.88;2.83;;;;;;;13.22;88.08;101745.66;5056426;28;20024;-62
2021/12/31 00:30:53;;;;;;;7.03;2.60;;;;;;;13.25;87.53;101748.00;5055342;28;20408;-61
2021/12/31 00:33:18;;;;;;;8.15;2.60;;;;;;;13.28;87.72;101742.31;5063929;28;20024;-61
2021/12/31 00:35:44;;;;;;;6.90;2.58;;;;;;;13.27;87.45;101736.16;5059528;28;20032;-62
2021/12/31 00:38:09;;;;;;;6.65;2.40;;;;;;;13.29;87.50;101744.00;5058667;28;20066;-62
2021/12/31 00:40:35;;;;;;;8.20;2.50;;;;;;;13.28;87.11;101737.81;5058945;28;20029;-62
2021/12/31 00:43:01;;;;;;;8.63;2.72;;;;;;;13.31;87.00;101736.69;5055837;28;20037;-61
2021/12/31 00:45:27;;;;;;;5.45;2.65;;;;;;;13.38;86.55;101743.00;5056025;28;20051;-61
2021/12/31 00:47:52;;;;;;;5.78;2.17;;;;;;;13.41;86.35;101742.69;5054552;28;20512;-61
2021/12/31 00:50:18;;;;;;;10.43;2.30;;;;;;;13.41;85.84;101739.19;5061871;28;20039;-62
2021/12/31 00:52:43;;;;;;;7.25;2.63;;;;;;;13.38;85.67;101734.19;5059257;28;20024;-62
2021/12/31 00:55:10;;;;;;;6.07;1.73;;;;;;;13.40;85.70;101748.19;5055850;28;20067;-62
2021/12/31 00:57:36;;;;;;;7.43;2.13;;;;;;;13.39;85.70;101751.84;5063963;28;20020;-61
2021/12/31 01:00:04;;;;;;;5.38;2.08;;;;;;;13.37;85.70;101748.53;5055927;28;20028;-62
2021/12/31 01:02:30;;;;;;;6.15;2.00;;;;;;;13.36;85.57;101746.84;5054904;28;20601;-61
2021/12/31 01:04:56;;;;;;;11.52;2.42;;;;;;;13.38;85.36;101753.69;5057146;28;20054;-62
2021/12/31 01:07:21;;;;;;;5.13;1.90;;;;;;;13.40;85.38;101750.84;5054972;28;20387;-62
2021/12/31 01:09:46;;;;;;;5.78;2.35;;;;;;;13.40;85.71;101748.19;5050751;28;20484;-61
2021/12/31 01:12:13;;;;;;;8.93;2.40;;;;;;;13.42;85.33;101751.50;5062843;28;20504;-62
2021/12/31 01:14:51;;;;;;;5.05;2.10;;;;;;;13.43;85.31;101742.50;5057496;28;20103;-61
2021/12/31 01:17:22;;;;;;;5.45;2.40;;;;;;;13.41;85.15;101737.34;5055332;28;20063;-61
2021/12/31 01:19:48;;;;;;;3.35;2.10;;;;;;;13.41;84.47;101756.03;5057555;28;20029;-61
2021/12/31 01:22:24;;;;;;;6.28;2.00;;;;;;;13.43;84.87;101747.84;5058996;28;20079;-62
2021/12/31 01:24:50;;;;;;;4.47;2.00;;;;;;;13.43;84.66;101737.19;5051346;28;20024;-62
2021/12/31 01:27:15;;;;;;;8.20;2.50;;;;;;;13.41;84.91;101739.19;5057957;28;20403;-61
2021/12/31 01:29:40;;;;;;;5.53;1.90;;;;;;;13.38;84.87;101739.50;5053246;28;20059;-61
2021/12/31 01:32:06;;;;;;;4.97;1.98;;;;;;;13.39;84.95;101741.19;5052303;28;20036;-62
2021/12/31 01:34:31;;;;;;;5.80;2.30;;;;;;;13.39;85.07;101743.84;5058620;28;20025;-61
2021/12/31 01:36:59;;;;;;;6.22;2.17;;;;;;;13.37;84.87;101752.03;5056783;28;20058;-61
2021/12/31 01:39:24;;;;;;;5.63;2.20;;;;;;;13.33;85.10;101750.69;5052423;28;20035;-62
2021/12/31 01:41:49;;;;;;;6.10;2.20;;;;;;;13.32;84.71;101741.84;5056690;28;20095;-61
2021/12/31 01:44:15;;;;;;;4.30;2.40;;;;;;;13.35;84.76;101753.19;5057522;28;20052;-61
2021/12/31 01:46:59;;;;;;;7.93;2.45;;;;;;;13.39;84.54;101757.19;5061868;28;20016;-62
2021/12/31 01:49:33;;;;;;;5.88;2.03;;;;;;;13.36;84.48;101754.84;5056380;28;20072;-61
2021/12/31 01:51:58;;;;;;;4.72;2.00;;;;;;;13.35;84.52;101770.03;5057720;28;21601;-62
2021/12/31 01:54:23;;;;;;;5.75;2.20;;;;;;;13.33;84.89;101770.19;5056525;28;20433;-62
2021/12/31 01:56:51;;;;;;;7.43;2.33;;;;;;;13.37;84.80;101767.19;5057092;28;20043;-62
2021/12/31 01:59:17;;;;;;;7.57;2.33;;;;;;;13.36;84.67;101760.19;5056450;28;20036;-61
2021/12/31 02:01:44;;;;;;;6.30;2.10;;;;;;;13.33;84.54;101769.38;5055844;28;20085;-61
2021/12/31 02:04:09;;;;;;;8.00;2.30;;;;;;;13.32;84.71;101773.03;5054573;28;20032;-62
2021/12/31 02:06:34;;;;;;;4.53;2.05;;;;;;;13.33;84.94;101777.38;5060726;28;20408;-62
2021/12/31 02:09:04;;;;;;;4.72;2.15;;;;;;;13.33;84.64;101772.88;5058879;28;20063;-61
2021/12/31 02:11:30;;;;;;;9.23;2.30;;;;;;;13.26;84.50;101766.50;5058659;28;20025;-62
2021/12/31 02:13:56;;;;;;;7.20;2.30;;;;;;;13.33;84.37;101775.53;5058100;28;20157;-61
2021/12/31 02:16:22;;;;;;;6.55;1.90;;;;;;;13.32;84.39;101765.88;5056966;28;20028;-61
2021/12/31 02:18:48;;;;;;;7.03;2.35;;;;;;;13.31;84.49;101768.69;5058164;28;20088;-62
2021/12/31 02:21:14;;;;;;;5.80;2.00;;;;;;;13.33;84.27;101766.69;5058828;28;20234;-61
2021/12/31 02:23:45;;;;;;;6.70;2.13;;;;;;;13.33;84.29;101764.88;5065747;28;20029;-61
2021/12/31 02:26:11;;;;;;;4.80;1.88;;;;;;;13.32;83.98;101759.69;5062181;28;20061;-62
2021/12/31 02:28:37;;;;;;;7.15;2.20;;;;;;;13.33;84.16;101756.03;5053394;28;20052;-61
2021/12/31 02:31:03;;;;;;;4.90;2.22;;;;;;;13.32;83.83;101744.53;5058017;28;20037;-62
2021/12/31 02:33:33;;;;;;;8.50;2.30;;;;;;;13.37;83.87;101759.19;5062816;28;20025;-61
2021/12/31 02:36:00;;;;;;;6.88;2.10;;;;;;;13.38;83.59;101759.03;5058985;28;20276;-62
2021/12/31 02:38:25;;;;;;;9.18;2.40;;;;;;;13.37;83.69;101751.19;5064138;28;20024;-61
2021/12/31 02:40:51;;;;;;;7.65;2.10;;;;;;;13.32;83.65;101755.19;5056685;28;20036;-61
2021/12/31 02:43:16;;;;;;;6.00;2.25;;;;;;;13.31;83.65;101745.53;5059185;28;20020;-62
2021/12/31 02:45:42;;;;;;;6.25;2.10;;;;;;;13.31;83.80;101747.34;5060904;28;20502;-62
2021/12/31 02:48:08;;;;;;;6.32;2.00;;;;;;;13.29;83.94;101744.81;5061607;28;20028;-62
2021/12/31 02:50:39;;;;;;;7.82;2.22;;;;;;;13.27;83.95;101746.81;5059546;28;20039;-62
2021/12/31 02:53:07;;;;;;;7.57;2.38;;;;;;;13.26;83.73;101747.81;5063630;28;20491;-61
2021/12/31 02:55:35;;;;;;;5.53;2.20;;;;;;;13.25;83.65;101740.00;5058942;28;20196;-62
2021/12/31 02:58:00;;;;;;;5.82;2.28;;;;;;;13.24;83.63;101735.66;5058546;28;20104;-62
2021/12/31 03:00:27;;;;;;;6.93;2.42;;;;;;;13.23;84.04;101737.50;5058952;28;20162;-61
2021/12/31 03:02:54;;;;;;;5.63;2.30;;;;;;;13.19;84.10;101746.84;5065671;28;20032;-61
2021/12/31 03:05:20;;;;;;;8.27;2.42;;;;;;;13.16;83.76;101746.31;5058358;28;20505;-62
2021/12/31 03:07:47;;;;;;;8.02;2.50;;;;;;;13.13;83.97;101734.13;5060119;28;20043;-61
2021/12/31 03:10:14;;;;;;;10.15;2.85;;;;;;;13.13;84.10;101743.97;5062723;28;20554;-61
2021/12/31 03:12:41;;;;;;;5.90;2.30;;;;;;;13.13;84.21;101735.97;5062909;28;20136;-62
2021/12/31 03:15:08;;;;;;;7.20;2.50;;;;;;;13.10;84.35;101730.97;5062563;28;20028;-62
2021/12/31 03:17:35;;;;;;;5.57;2.28;;;;;;;13.11;84.10;101730.78;5042271;28;20052;-61
2021/12/31 03:20:10;;;;;;;7.38;2.30;;;;;;;13.14;84.28;101727.78;5052275;28;20017;-61
2021/12/31 03:22:37;;;;;;;6.07;2.20;;;;;;;13.18;84.00;101737.16;5058734;28;20025;-62
2021/12/31 03:25:02;;;;;;;7.07;2.40;;;;;;;13.16;84.11;101720.47;5061764;28;20526;-61
2021/12/31 03:27:27;;;;;;;7.70;2.20;;;;;;;13.16;83.94;101728.47;5062511;28;20056;-61
2021/12/31 03:29:53;;;;;;;5.63;2.17;;;;;;;13.16;83.58;101725.78;5054500;28;20021;-61
2021/12/31 03:32:18;;;;;;;7.68;2.65;;;;;;;13.17;83.79;101729.28;5060004;28;20534;-62
2021/12/31 03:34:43;;;;;;;8.70;2.33;;;;;;;13.16;83.62;101727.63;5063537;28;20091;-61
2021/12/31 03:37:08;;;;;;;5.30;2.30;;;;;;;13.14;83.88;101735.78;5063849;28;20401;-62
2021/12/31 03:39:34;;;;;;;5.18;2.25;;;;;;;13.13;83.69;101726.13;5059453;28;20061;-61
2021/12/31 03:41:59;;;;;;;7.43;2.33;;;;;;;13.15;83.60;101726.78;5043232;28;20079;-62
2021/12/31 03:44:24;;;;;;;8.13;2.50;;;;;;;13.16;83.56;101732.97;5060024;28;20035;-62
2021/12/31 03:46:49;;;;;;;5.20;2.47;;;;;;;13.14;83.76;101727.78;5060214;28;20034;-62
2021/12/31 03:49:15;;;;;;;4.88;2.10;;;;;;;13.14;83.60;101719.78;5051592;28;20033;-62
2021/12/31 03:51:40;;;;;;;8.90;2.33;;;;;;;13.11;83.54;101717.47;5064385;28;20428;-61
2021/12/31 03:54:05;;;;;;;7.82;2.72;;;;;;;13.07;83.71;101716.13;5056147;28;20029;-61
2021/12/31 03:56:32;;;;;;;10.45;2.83;;;;;;;13.02;83.90;101713.97;5064834;28;20391;-61
2021/12/31 03:58:59;;;;;;;6.57;2.60;;;;;;;13.01;83.71;101717.63;5060821;28;20037;-62
2021/12/31 04:01:25;;;;;;;5.68;2.60;;;;;;;12.97;84.30;101715.44;5059895;28;20033;-61
2021/12/31 04:03:51;;;;;;;6.47;2.58;;;;;;;12.95;84.14;101714.75;5058775;28;20068;-61
2021/12/31 04:06:16;;;;;;;5.55;2.65;;;;;;;12.93;84.20;101711.44;5061063;28;20052;-61
2021/12/31 04:08:41;;;;;;;7.80;2.45;;;;;;;12.91;84.43;101716.09;5051734;28;20472;-62
2021/12/31 04:11:07;;;;;;;9.80;2.88;;;;;;;12.89;84.74;101713.59;5061347;28;20392;-62
2021/12/31 04:13:32;;;;;;;7.10;2.60;;;;;;;12.90;84.68;101717.09;5069046;28;20050;-62
2021/12/31 04:15:57;;;;;;;7.85;2.50;;;;;;;12.87;84.45;101710.25;5061778;28;20044;-62
2021/12/31 04:18:25;;;;;;;9.35;2.67;;;;;;;12.87;84.34;101704.09;5055463;28;20024;-62
2021/12/31 04:20:55;;;;;;;6.88;2.53;;;;;;;12.83;84.93;101705.44;5060233;28;20043;-62
2021/12/31 04:23:33;;;;;;;;;;;;;;;12.84;85.19;101715.09;5063326;28;20074;-61
2021/12/31 04:25:59;;;;;;;5.60;2.70;;;;;;;12.78;85.08;101707.75;5054629;28;20265;-61
2021/12/31 04:28:26;;;;;;;9.15;2.80;;;;;;;12.79;85.01;101714.75;5061394;28;20107;-61
2021/12/31 04:30:51;;;;;;;8.90;2.88;;;;;;;12.77;85.17;101709.59;5057572;28;20029;-61
2021/12/31 04:33:17;;;;;;;7.13;2.70;;;;;;;12.75;85.36;101700.09;5058705;28;20032;-61
2021/12/31 04:35:42;;;;;;;7.00;2.90;;;;;;;12.75;85.24;101697.44;5056484;28;20052;-61
2021/12/31 04:38:07;;;;;;;8.13;2.90;;;;;;;12.70;85.77;101701.38;5056108;28;20112;-61
2021/12/31 04:40:33;;;;;;;9.23;2.90;;;;;;;12.69;85.89;101697.06;5053127;28;20024;-61
2021/12/31 04:42:58;;;;;;;8.27;3.08;;;;;;;12.70;85.46;101689.91;5055917;28;20526;-62
2021/12/31 04:45:25;;;;;;;8.30;3.22;;;;;;;12.75;85.37;101694.75;5059791;28;20071;-62
2021/12/31 04:47:51;;;;;;;7.60;3.03;;;;;;;12.73;85.47;101681.59;5061165;28;20038;-61
2021/12/31 04:50:16;;;;;;;9.52;3.53;;;;;;;12.70;85.65;101681.91;5060896;28;20280;-61
2021/12/31 04:52:42;;;;;;;9.82;3.20;;;;;;;12.68;85.51;101690.06;5054271;28;20025;-62
2021/12/31 04:55:08;;;;;;;9.07;3.30;;;;;;;12.68;85.96;101694.56;5052463;28;20043;-62
2021/12/31 04:57:33;;;;;;;8.32;3.20;;;;;;;12.70;85.97;101692.56;5052672;28;20095;-61
2021/12/31 04:59:58;;;;;;;8.90;3.03;;;;;;;12.73;85.47;101697.59;5054724;28;20483;-61
2021/12/31 05:02:24;;;;;;;8.43;2.80;;;;;;;12.74;85.85;101695.75;5056800;28;20024;-61
2021/12/31 05:04:49;;;;;;;7.32;3.03;;;;;;;12.72;85.58;101695.91;5057507;28;20037;-61
2021/12/31 05:07:14;;;;;;;11.02;2.97;;;;;;;12.71;85.27;101691.56;5058425;28;20116;-62
2021/12/31 05:09:39;;;;;;;8.85;3.10;;;;;;;12.70;85.34;101692.56;5051924;28;20468;-61
2021/12/31 05:12:05;;;;;;;9.05;3.08;;;;;;;12.69;85.30;101698.88;5060789;28;20036;-61
2021/12/31 05:14:31;;;;;;;7.35;3.08;;;;;;;12.68;85.27;101690.06;5056364;28;20025;-62
2021/12/31 05:16:58;;;;;;;9.35;3.10;;;;;;;12.67;85.53;101699.06;5063287;28;20072;-62
2021/12/31 05:19:23;;;;;;;6.47;3.03;;;;;;;12.66;85.73;101693.88;5060172;28;20075;-61
2021/12/31 05:21:48;;;;;;;5.65;3.00;;;;;;;12.63;85.49;101692.38;5054354;28;20036;-61
2021/12/31 05:24:16;;;;;;;8.98;3.30;;;;;;;12.62;85.46;101687.22;5061903;28;20036;-62
2021/12/31 05:26:41;;;;;;;8.55;3.28;;;;;;;12.60;85.56;101681.22;5052000;28;20040;-61
2021/12/31 05:29:06;;;;;;;7.18;2.85;;;;;;;12.59;85.35;101675.06;5054464;28;20028;-62
2021/12/31 05:31:32;;;;;;;7.40;3.05;;;;;;;12.60;85.35;101682.06;5058171;28;20036;-61
2021/12/31 05:33:57;;;;;;;6.55;3.40;;;;;;;12.62;85.48;101664.06;5056075;28;20037;-62
2021/12/31 05:36:22;;;;;;;6.65;3.03;;;;;;;12.61;85.26;101661.56;5060451;28;20024;-62
2021/12/31 05:38:47;;;;;;;8.73;3.40;;;;;;;12.59;85.17;101660.91;5058774;28;20396;-62
2021/12/31 05:41:13;;;;;;;7.22;3.25;;;;;;;12.56;85.38;101658.56;5050965;28;20037;-61
2021/12/31 05:43:38;;;;;;;9.52;3.20;;;;;;;12.55;85.33;101659.56;5059886;28;20510;-62
2021/12/31 05:46:04;;;;;;;7.22;2.95;;;;;;;12.54;85.28;101652.56;5063927;28;20054;-61
2021/12/31 05:48:29;;;;;;;7.47;3.10;;;;;;;12.51;85.22;101648.41;5061269;28;20028;-62
2021/12/31 05:50:55;;;;;;;7.65;3.25;;;;;;;12.49;85.17;101657.56;5057264;28;20077;-61
2021/12/31 05:53:21;;;;;;;7.30;2.80;;;;;;;12.46;84.95;101657.88;5057440;28;20029;-61
2021/12/31 05:55:46;;;;;;;7.18;2.92;;;;;;;12.38;85.12;101650.69;5063808;28;20077;-61
2021/12/31 05:58:11;;;;;;;6.30;3.38;;;;;;;12.36;85.28;101666.00;5063111;28;20025;-62
2021/12/31 06:00:37;;;;;;;7.88;3.30;;;;;;;12.33;84.98;101653.00;5055653;28;20032;-61
2021/12/31 06:03:02;;;;;;;8.30;2.90;;;;;;;12.29;85.17;101652.50;5056160;28;20472;-62
2021/12/31 06:05:28;;;;;;;6.43;3.20;;;;;;;12.24;85.11;101665.47;5056355;28;20147;-61
2021/12/31 06:07:56;;;;;;;8.02;3.45;;;;;;;12.22;85.35;101653.31;5060331;28;20050;-61
2021/12/31 06:10:22;;;;;;;8.02;3.20;;;;;;;12.17;85.04;101653.81;5054040;28;20044;-61
2021/12/31 06:12:49;;;;;;;11.00;3.47;;;;;;;12.13;85.40;101668.41;5062685;28;20484;-61
2021/12/31 06:15:17;;;;;;;5.97;2.88;;;;;;;12.06;85.57;101667.38;5058863;28;20064;-61
2021/12/31 06:17:42;;;;;;;6.57;3.22;;;;;;;12.01;85.59;101670.53;5059188;28;20037;-61
2021/12/31 06:20:09;;;;;;;7.60;3.00;;;;;;;11.99;85.71;101672.53;5054770;28;20028;-61
2021/12/31 06:22:35;;;;;;;7.13;3.38;;;;;;;11.98;86.09;101673.53;5061260;28;20032;-61
2021/12/31 06:25:00;;;;;;;7.97;3.03;;;;;;;11.96;85.87;101670.19;5056308;28;20033;-61
2021/12/31 06:27:25;;;;;;;6.97;3.20;;;;;;;11.95;85.83;101683.66;5054811;28;20029;-61
2021/12/31 06:29:50;;;;;;;7.35;3.35;;;;;;;11.91;85.80;101675.16;5057742;28;20607;-61
2021/12/31 06:32:16;;;;;;;6.90;3.28;;;;;;;11.87;86.15;101673.81;5059906;28;20070;-61
2021/12/31 06:34:41;;;;;;;6.90;3.45;;;;;;;11.83;86.55;101675.09;5060163;28;20031;-62
2021/12/31 06:37:06;;;;;;;7.25;3.35;;;;;;;11.80;86.24;101667.44;5052966;28;20032;-61
2021/12/31 06:39:32;;;;;;;6.43;3.20;;;;;;;11.77;86.30;101673.03;5054359;28;20033;-62
2021/12/31 06:42:01;;;;;;;8.50;3.45;;;;;;;11.71;86.70;101673.66;5055493;28;20029;-60
2021/12/31 06:44:26;;;;;;;7.95;3.38;;;;;;;11.68;86.50;101676.66;5056417;28;20031;-61
2021/12/31 06:46:51;;;;;;;8.10;3.85;;;;;;;11.64;87.01;101675.31;5057760;28;20036;-62
2021/12/31 06:49:16;;;;;;;6.38;3.22;;;;;;;11.61;86.88;101672.94;5057024;28;20464;-61
2021/12/31 06:51:42;;;;;;;8.35;3.17;;;;;;;11.57;86.93;101682.25;5058838;28;20033;-61
2021/12/31 06:54:07;;;;;;;8.80;4.10;;;;;;;11.54;87.14;101678.03;5060309;28;20028;-62
2021/12/31 06:56:32;;;;;;;8.48;3.45;;;;;;;11.53;87.34;101679.03;5062424;28;20055;-61
2021/12/31 06:58:57;;;;;;;6.80;3.50;;;;;;;11.50;87.14;101679.34;5052990;28;20032;-61
2021/12/31 07:01:24;;;;;;;8.90;3.55;;;;;;;11.45;87.12;101685.13;5063342;28;20051;-61
2021/12/31 07:03:49;;;;;;;7.40;3.45;;;;;;;11.42;87.53;101682.78;5062591;28;20403;-61
2021/12/31 07:06:15;;;;;;;8.07;3.58;;;;;;;11.41;87.51;101693.59;5062404;28;20025;-61
2021/12/31 07:08:40;;;;;;;9.02;3.40;;;;;;;11.41;87.70;101698.91;5058109;28;20442;-61
2021/12/31 07:11:06;;;;;;;7.18;3.50;;;;;;;11.39;87.56;101695.56;5064208;28;20500;-61
2021/12/31 07:13:31;;;;;;;6.97;3.50;;;;;;;11.39;87.62;101693.75;5062500;28;20056;-62
2021/12/31 07:15:56;;;;;;;8.32;3.55;;;;;;;11.35;87.46;101671.13;5057171;28;20028;-61
2021/12/31 07:18:23;;;;;;;13.05;3.42;;;;;;;11.33;87.62;101673.09;5059166;28;20052;-62
2021/12/31 07:20:49;;;;;;;5.85;3.28;;;;;;;11.33;87.47;101690.88;5059203;28;20028;-62
2021/12/31 07:23:17;;;;;;;7.28;3.28;;;;;;;11.32;87.39;101682.06;5063013;28;20116;-62
2021/12/31 07:25:42;;;;;;;8.68;3.53;;;;;;;11.31;87.50;101690.19;5059221;28;20495;-61
2021/12/31 07:28:09;;;;;;;7.90;3.40;;;;;;;11.30;87.81;101697.34;5054599;28;20024;-62
2021/12/31 07:30:36;;;;;;;8.05;3.50;;;;;;;11.28;87.95;101698.50;5063805;28;20021;-62
2021/12/31 07:33:02;;;;;;;8.30;3.72;;;;;;;11.22;87.53;101680.47;5059785;28;20035;-62
2021/12/31 07:35:28;;;;;;;10.23;3.58;;;;;;;11.24;87.71;101691.78;5057360;28;20029;-61
2021/12/31 07:37:56;;;;;;;5.53;3.17;;;;;;;11.24;87.90;101692.63;5053104;28;20166;-62
2021/12/31 07:40:39;;;;;;;6.32;3.38;;;;;;;11.22;87.75;101697.25;5064217;28;20035;-62
2021/12/31 07:43:06;;;;;;;6.15;3.28;;;;;;;11.18;87.69;101693.25;5056986;28;20024;-61
2021/12/31 07:45:31;;;;;;;6.53;3.03;;;;;;;11.20;87.79;101701.06;5060819;28;20024;-61
2021/12/31 07:47:56;;;;;;;7.35;3.20;;;;;;;11.26;87.83;101692.47;5056345;28;20052;-62
2021/12/31 07:50:23;;;;;;;6.20;3.50;;;;;;;11.29;87.49;101694.84;5060113;28;20044;-63
2021/12/31 07:52:48;;;;;;;6.78;3.40;;;;;;;11.28;87.44;101688.69;5064810;28;20028;-62
2021/12/31 07:55:13;;;;;;;8.23;3.33;;;;;;;11.23;87.46;101688.28;5061793;28;20481;-61
2021/12/31 07:57:39;;;;;;;11.70;3.97;;;;;;;11.21;87.07;101690.28;5055548;28;20025;-61
2021/12/31 08:00:06;;;;;;;9.55;3.40;;;;;;;11.20;87.75;101701.88;5053549;28;20115;-62
2021/12/31 08:02:31;;;;;;;5.55;3.05;;;;;;;11.21;87.62;101698.25;5038464;28;20067;-62
2021/12/31 08:04:57;;;;;;;7.35;3.58;;;;;;;11.25;87.43;101694.28;5058994;28;20033;-61
2021/12/31 08:07:22;;;;;;;7.45;3.40;;;;;;;11.27;87.06;101697.63;5070701;28;20025;-62
2021/12/31 08:09:47;;;;;;;5.75;3.00;;;;;;;11.27;87.27;101715.41;5060160;28;20091;-62
2021/12/31 08:12:12;;;;;;;7.30;3.40;;;;;;;11.27;86.92;101716.22;5059194;28;20032;-62
2021/12/31 08:14:38;;;;;;;5.47;3.20;;;;;;;11.31;86.78;101704.34;5062019;28;20090;-61
2021/12/31 08:17:03;;;;;;;8.95;3.20;;;;;;;11.31;86.87;101699.00;5057408;28;20099;-61
2021/12/31 08:19:28;;;;;;;7.28;3.10;;;;;;;11.30;86.63;101701.81;5057358;28;20029;-61
2021/12/31 08:21:54;;;;;;;5.28;2.63;;;;;;;11.30;86.49;101700.00;5059073;28;20020;-61
2021/12/31 08:24:19;;;;;;;6.43;3.10;;;;;;;11.30;86.77;101702.66;5058673;28;20017;-60
2021/12/31 08:26:44;;;;;;;7.90;3.10;;;;;;;11.28;86.57;101704.63;5057832;28;20508;-62
2021/12/31 08:29:12;;;;;;;6.55;2.80;;;;;;;11.26;86.45;101701.28;5058258;28;20028;-61
2021/12/31 08:31:38;;;;;;;6.20;3.50;;;;;;;11.26;86.87;101695.13;5055819;28;20043;-61
2021/12/31 08:34:03;;;;;;;7.47;3.30;;;;;;;11.25;86.62;101704.91;5060483;28;20560;-61
2021/12/31 08:36:29;;;;;;;8.57;3.25;;;;;;;11.27;86.60;101707.41;5061583;28;20020;-62
2021/12/31 08:38:54;;;;;;;4.57;3.00;;;;;;;11.29;86.48;101705.47;5062538;28;20027;-61
2021/12/31 08:41:19;;;;;;;7.80;2.97;;;;;;;11.32;86.11;101702.50;5056964;28;20035;-60
2021/12/31 08:43:44;;;;;;;6.22;3.47;;;;;;;11.36;85.99;101701.19;5054703;28;20027;-62
2021/12/31 08:46:10;;;;;;;6.47;3.10;;;;;;;11.39;85.88;101695.56;5060675;28;20029;-61
2021/12/31 08:48:35;;;;;;;5.18;3.10;;;;;;;11.42;85.59;101698.75;5059905;28;20056;-61
2021/12/31 08:51:00;;;;;;;9.88;3.28;;;;;;;11.45;85.87;101692.28;5061851;28;20025;-61
2021/12/31 08:53:26;;;;;;;6.53;3.20;;;;;;;11.45;85.74;101685.13;5056861;28;20021;-60
2021/12/31 08:55:51;;;;;;;8.48;2.97;;;;;;;11.47;85.62;101683.16;5059571;28;20459;-62
2021/12/31 08:58:16;;;;;;;4.93;2.90;;;;;;;11.49;85.23;101675.84;5057235;28;20017;-62
2021/12/31 09:00:42;;;;;;;6.65;3.10;;;;;;;11.50;85.23;101671.38;5060466;28;20096;-62
2021/12/31 09:03:07;;;;;;;6.65;2.92;;;;;;;11.50;84.77;101671.38;5055090;28;20029;-61
2021/12/31 09:05:33;;;;;;;5.20;2.95;;;;;;;11.53;84.79;101679.03;5060739;28;20036;-61
2021/12/31 09:07:58;;;;;;;4.40;2.75;;;;;;;11.57;84.74;101688.41;5058095;28;20397;-61
2021/12/31 09:10:24;;;;;;;4.55;2.83;;;;;;;11.59;84.55;101694.41;5053969;28;20564;-61
2021/12/31 09:12:50;;;;;;;7.28;2.80;;;;;;;11.61;84.57;101704.88;5056234;28;20114;-61
2021/12/31 09:15:15;;;;;;;6.40;3.40;;;;;;;11.59;84.46;101702.38;5053307;28;20029;-61
2021/12/31 09:17:41;;;;;;;7.78;3.45;;;;;;;11.63;84.21;101697.56;5062082;28;20032;-61
2021/12/31 09:20:07;;;;;;;9.23;2.90;;;;;;;11.65;84.32;101700.91;5059062;28;20085;-61
2021/12/31 09:22:32;;;;;;;5.38;3.20;;;;;;;11.67;84.16;101697.09;5054234;28;20021;-61
2021/12/31 09:25:01;;;;;;;5.40;2.88;;;;;;;11.69;84.18;101696.94;5061995;28;20025;-62
2021/12/31 09:27:27;;;;;;;3.67;2.53;;;;;;;11.72;83.66;101692.13;5062080;28;20405;-61
2021/12/31 09:29:53;;;;;;;4.35;2.95;;;;;;;11.73;83.64;101693.81;5050581;28;20027;-60
2021/12/31 09:32:18;;;;;;;5.88;3.30;;;;;;;11.74;83.57;101699.97;5060036;28;20032;-62
2021/12/31 09:34:44;;;;;;;5.40;3.58;;;;;;;11.73;83.98;101695.63;5053203;28;20035;-61
2021/12/31 09:37:12;;;;;;;10.75;5.88;;;;;;;11.74;83.99;101707.94;5060708;28;20391;-61
2021/12/31 09:39:38;;;;;;;6.63;5.00;;;;;;;11.73;83.59;101715.09;5055462;28;20032;-61
2021/12/31 09:42:07;;;;;;;9.13;5.65;;;;;;;11.75;83.81;101723.75;5061203;28;20103;-61
2021/12/31 09:44:34;;;;;;;5.55;3.00;;;;;;;11.76;83.74;101728.09;5062603;28;20028;-61
2021/12/31 09:46:59;;;;;;;5.25;4.10;;;;;;;11.77;83.69;101720.94;5057762;28;20047;-60
2021/12/31 09:49:25;;;;;;;6.10;3.00;;;;;;;11.78;83.58;101727.97;5066692;28;20036;-62
2021/12/31 09:51:51;;;;;;;6.13;2.80;;;;;;;11.80;83.78;101733.94;5061714;28;20028;-61
2021/12/31 09:54:21;;;;;;;9.25;5.38;;;;;;;11.81;83.32;101740.13;5061238;28;20139;-61
2021/12/31 09:56:47;;;;;;;8.10;6.03;;;;;;;11.83;83.52;101738.97;5054837;28;20052;-61
2021/12/31 09:59:12;;;;;;;7.57;4.88;;;;;;;11.85;83.21;101752.94;5058921;28;20070;-62
2021/12/31 10:01:45;;;;;;;7.78;3.05;;;;;;;11.84;83.44;101750.44;5056675;28;20426;-62
2021/12/31 10:04:11;;;;;;;5.63;3.30;;;;;;;11.86;83.16;101736.00;5050933;28;20098;-61
2021/12/31 10:06:36;;;;;;;7.03;2.58;;;;;;;11.89;83.29;101734.88;5059382;28;20493;-61
2021/12/31 10:09:03;;;;;;;7.22;3.08;;;;;;;11.90;82.99;101729.38;5051590;28;20435;-62
2021/12/31 10:11:28;;;;;;;5.47;3.63;;;;;;;11.89;82.74;101730.38;5057378;28;20051;-62
2021/12/31 10:14:01;;;;;;;5.22;3.15;;;;;;;11.88;83.23;101749.16;5055726;28;20447;-61
2021/12/31 10:16:31;;;;;;;5.53;3.10;;;;;;;11.87;82.84;101736.84;5060973;28;20021;-61
2021/12/31 10:19:24;;;;;;;5.07;2.78;;;;;;;11.87;83.07;101732.38;5060205;28;20123;-61
2021/12/31 10:21:51;;;;;;;7.25;3.47;;;;;;;11.88;83.23;101727.88;5053376;28;20484;-61
2021/12/31 10:24:22;;;;;;;6.32;3.72;;;;;;;11.88;83.35;101727.88;5056555;28;20396;-61
2021/12/31 10:26:49;;;;;;;6.88;3.92;;;;;;;11.91;83.06;101716.91;5060449;28;20036;-61
2021/12/31 10:29:14;;;;;;;6.00;3.67;;;;;;;11.91;83.14;101706.25;5054387;28;20036;-62
2021/12/31 10:31:45;;;;;;;6.53;3.20;;;;;;;11.92;83.47;101710.59;5054930;28;20021;-61
2021/12/31 10:34:32;;;;;;;7.88;3.15;;;;;;;11.94;83.46;101701.44;5055643;28;20027;-62
2021/12/31 10:36:59;;;;;;;5.07;3.25;;;;;;;11.95;83.44;101716.44;5063741;28;20038;-62
2021/12/31 10:39:27;;;;;;;5.53;3.20;;;;;;;11.97;83.10;101703.78;5060716;28;20126;-60
2021/12/31 10:42:06;;;;;;;4.40;2.97;;;;;;;12.03;82.97;101715.63;5070399;28;20073;-62
2021/12/31 10:44:48;;;;;;;7.05;3.67;;;;;;;12.06;83.13;101720.63;5056894;28;20033;-61
2021/12/31 10:47:22;;;;;;;9.38;4.43;;;;;;;12.05;83.43;101730.44;5055617;28;20028;-62
2021/12/31 10:50:00;;;;;;;8.20;4.85;;;;;;;12.04;83.13;101743.91;5062215;28;20017;-61
2021/12/31 10:52:33;;;;;;;8.57;3.40;;;;;;;12.05;82.92;101741.09;5062927;28;20046;-61
2021/12/31 10:55:14;;;;;;;6.90;3.90;;;;;;;12.06;82.78;101747.25;5059363;28;20082;-62
2021/12/31 10:57:39;;;;;;;6.80;3.47;;;;;;;12.07;82.89;101735.63;5059948;28;20028;-61
2021/12/31 11:00:09;;;;;;;5.20;2.80;;;;;;;12.11;82.59;101734.31;5058319;28;20027;-62
2021/12/31 11:02:35;;;;;;;5.65;2.78;;;;;;;12.13;82.58;101721.66;5058287;28;20021;-61
2021/12/31 11:05:01;;;;;;;5.70;3.17;;;;;;;12.18;82.82;101734.53;5060330;28;20036;-61
2021/12/31 11:07:30;;;;;;;5.47;2.72;;;;;;;12.28;82.62;101727.25;5061361;28;20016;-61
2021/12/31 11:09:58;;;;;;;12.18;8.02;;;;;;;12.36;82.48;101703.28;5058645;28;20056;-62
2021/12/31 11:12:24;;;;;;;11.77;6.13;;;;;;;12.48;82.59;101718.00;5064208;28;20045;-62
2021/12/31 11:14:50;;;;;;;4.82;2.85;;;;;;;12.57;81.92;101682.38;5061149;28;20118;-61
2021/12/31 11:17:17;;;;;;;4.38;2.67;;;;;;;12.61;81.46;101685.56;5058883;28;20043;-61
2021/12/31 11:19:44;;;;;;;3.55;2.60;;;;;;;12.64;81.46;101669.22;5062167;28;20032;-61
2021/12/31 11:22:11;;;;;;;4.53;2.88;;;;;;;12.63;81.18;101665.75;5058704;28;20045;-61